Time;durP1;ratioP1;P1;durP2;ratioP2;P2;SDS_P1;SDS_P2;PMS_P1;PMS_P2;Temp;Humidity;BMP_temperature;BMP_pressure;BME280_temperature;BME280_humidity;BME280_pressure;Samples;Min_cycle;Max_cycle;Signal;HPM_P1;HPM_P2
2022/06/25 00:01:28;;;;;;;4.43;4.03;;;16.90;1.00;;;;;;5060141;28;20588;-64
2022/06/25 00:03:55;;;;;;;5.60;4.73;;;16.80;99.90;;;;;;5059909;28;20461;-64
2022/06/25 00:06:24;;;;;;;4.50;4.13;;;16.80;1.00;;;;;;5059629;28;20852;-64
2022/06/25 00:08:53;;;;;;;4.90;4.40;;;16.80;99.90;;;;;;5059948;28;20510;-64
2022/06/25 00:14:13;;;;;;;4.30;3.90;;;16.70;1.00;;;;;;5059560;28;20433;-64
2022/06/25 00:16:40;;;;;;;7.47;3.83;;;16.80;1.00;;;;;;5059763;28;20512;-64
2022/06/25 00:19:10;;;;;;;8.97;4.40;;;16.70;1.00;;;;;;5059240;28;20490;-64
2022/06/25 00:21:37;;;;;;;4.20;3.90;;;16.70;99.90;;;;;;5059286;28;20433;-64
2022/06/25 00:24:05;;;;;;;3.93;3.50;;;16.70;99.90;;;;;;5059759;28;20486;-64
2022/06/25 00:26:33;;;;;;;4.10;3.33;;;16.60;1.00;;;;;;5059981;28;20486;-64
2022/06/25 00:29:00;;;;;;;4.93;4.30;;;16.50;1.00;;;;;;5059903;28;20532;-64
2022/06/25 00:31:34;;;;;;;4.70;4.17;;;16.50;79.70;;;;;;5059083;28;20551;-64
2022/06/25 00:34:04;;;;;;;4.70;4.20;;;16.50;99.90;;;;;;5059721;28;20462;-64
2022/06/25 00:36:31;;;;;;;7.50;4.03;;;16.60;99.90;;;;;;5059378;28;20533;-64
2022/06/25 00:39:00;;;;;;;4.93;4.53;;;16.50;99.90;;;;;;5058919;28;20516;-64
2022/06/25 00:41:27;;;;;;;4.20;3.80;;;16.50;77.40;;;;;;5058948;28;20520;-64
2022/06/25 00:43:54;;;;;;;9.17;5.67;;;16.50;70.40;;;;;;5059259;28;20556;-64
2022/06/25 00:46:22;;;;;;;4.90;4.40;;;16.50;99.90;;;;;;5059462;28;20562;-64
2022/06/25 00:48:50;;;;;;;17.43;5.60;;;16.40;78.40;;;;;;5059198;28;20925;-64
2022/06/25 00:51:21;;;;;;;4.70;4.30;;;16.40;99.90;;;;;;5058894;28;20555;-64
2022/06/25 00:53:48;;;;;;;7.40;5.10;;;16.40;99.90;;;;;;5058813;28;20440;-64
2022/06/25 00:56:18;;;;;;;5.10;4.63;;;16.30;99.90;;;;;;5058905;28;20566;-64
2022/06/25 00:58:46;;;;;;;5.40;5.00;;;16.40;99.90;;;;;;5059047;28;20915;-64
2022/06/25 01:01:15;;;;;;;4.60;4.10;;;16.30;99.90;;;;;;5058750;28;20461;-64
2022/06/25 01:03:43;;;;;;;6.90;3.83;;;16.20;99.90;;;;;;5058641;28;20560;-64
2022/06/25 01:06:13;;;;;;;4.87;4.43;;;16.20;99.90;;;;;;5058834;28;20955;-64
2022/06/25 01:08:43;;;;;;;5.10;4.60;;;16.30;99.90;;;;;;5058888;28;20893;-64
2022/06/25 01:11:11;;;;;;;5.67;5.07;;;16.30;99.90;;;;;;5058747;28;20516;-64
2022/06/25 01:13:38;;;;;;;6.57;5.93;;;16.30;99.90;;;;;;5058481;28;20462;-64
2022/06/25 01:16:05;;;;;;;8.17;5.13;;;16.30;99.90;;;;;;5058578;28;20564;-64
2022/06/25 01:18:33;;;;;;;5.17;4.77;;;16.40;99.90;;;;;;5058379;28;20525;-64
2022/06/25 01:21:11;;;;;;;5.00;4.60;;;16.40;99.90;;;;;;5058413;28;20436;-64
2022/06/25 01:23:40;;;;;;;5.63;4.37;;;16.40;99.90;;;;;;5058326;28;20828;-64
2022/06/25 01:26:08;;;;;;;6.40;5.80;;;16.30;99.90;;;;;;5058489;28;20531;-64
2022/06/25 01:28:35;;;;;;;5.47;5.07;;;16.30;99.90;;;;;;5058785;28;20467;-64
2022/06/25 01:31:02;;;;;;;5.67;5.17;;;16.30;99.90;;;;;;5058415;28;20458;-64
2022/06/25 01:33:32;;;;;;;6.30;5.80;;;16.30;99.90;;;;;;5058408;28;20585;-64
2022/06/25 01:35:59;;;;;;;5.43;4.93;;;16.30;99.90;;;;;;5061333;28;20441;-64
2022/06/25 01:38:27;;;;;;;8.17;5.20;;;16.30;99.90;;;;;;5072661;28;20464;-64
2022/06/25 01:40:58;;;;;;;5.87;5.20;;;16.20;99.90;;;;;;5073505;28;20544;-64
2022/06/25 01:43:25;;;;;;;5.30;4.80;;;16.20;99.90;;;;;;5057358;28;20425;-64
2022/06/25 01:45:53;;;;;;;6.33;5.83;;;16.20;99.90;;;;;;5057592;28;20458;-64
2022/06/25 01:48:21;;;;;;;7.47;5.40;;;16.20;99.90;;;;;;5057598;28;20601;-63
2022/06/25 01:50:52;;;;;;;6.00;5.23;;;16.20;99.90;;;;;;5054694;28;20455;-64
2022/06/25 01:53:19;;;;;;;5.47;5.00;;;16.20;99.90;;;;;;5057083;28;20486;-64
2022/06/25 01:55:49;;;;;;;5.50;5.10;;;16.20;99.90;;;;;;5057098;28;20879;-64
2022/06/25 01:58:20;;;;;;;6.57;5.97;;;16.20;99.90;;;;;;5057614;28;20458;-64
2022/06/25 02:00:49;;;;;;;6.47;5.87;;;16.20;99.90;;;;;;5057181;28;20546;-64
2022/06/25 02:03:17;;;;;;;6.20;5.70;;;16.20;99.90;;;;;;5057121;28;20454;-64
2022/06/25 02:08:36;;;;;;;6.50;5.47;;;16.10;99.90;;;;;;5046091;28;20454;-64
2022/06/25 02:11:06;;;;;;;5.00;4.50;;;16.10;99.90;;;;;;5056971;28;20497;-64
2022/06/25 02:13:34;;;;;;;7.10;5.40;;;16.10;99.90;;;;;;5054580;28;20918;-64
2022/06/25 02:16:09;;;;;;;6.10;5.60;;;16.10;99.90;;;;;;5055114;28;20544;-63
2022/06/25 02:18:40;;;;;;;5.77;5.10;;;16.10;99.90;;;;;;5054630;28;20488;-63
2022/06/25 02:21:10;;;;;;;6.17;5.57;;;16.10;99.90;;;;;;5055878;28;20953;-63
2022/06/25 02:23:37;;;;;;;5.43;4.93;;;16.00;99.90;;;;;;5055166;28;20552;-64
2022/06/25 02:26:05;;;;;;;9.33;5.17;;;15.90;99.90;;;;;;5056535;28;20444;-64
2022/06/25 02:28:32;;;;;;;6.27;5.50;;;16.00;99.90;;;;;;5056813;28;20460;-64
2022/06/25 02:31:02;;;;;;;10.10;6.33;;;15.90;99.90;;;;;;5056732;28;20462;-63
2022/06/25 02:33:30;;;;;;;6.67;6.07;;;15.90;99.90;;;;;;5052924;28;20493;-64
2022/06/25 02:35:57;;;;;;;6.30;5.70;;;15.90;99.90;;;;;;5056706;28;20531;-64
2022/06/25 02:38:25;;;;;;;7.40;5.30;;;15.90;99.90;;;;;;5056522;28;20549;-64
2022/06/25 02:40:52;;;;;;;6.07;5.57;;;15.90;99.90;;;;;;5055330;28;20461;-63
2022/06/25 02:43:20;;;;;;;7.93;5.53;;;15.90;99.90;;;;;;5056285;28;20468;-64
2022/06/25 02:45:47;;;;;;;5.67;5.10;;;15.80;99.90;;;;;;5056429;28;20553;-64
2022/06/25 02:48:16;;;;;;;8.63;6.17;;;15.80;99.90;;;;;;5056556;28;20552;-64
2022/06/25 02:50:43;;;;;;;5.83;5.33;;;15.80;99.90;;;;;;5056412;28;21184;-64
2022/06/25 02:53:11;;;;;;;6.00;5.50;;;15.90;99.90;;;;;;5053714;28;20521;-64
2022/06/25 03:01:07;;;;;;;6.73;6.13;;;15.90;99.90;;;;;;5055687;28;20510;-63
2022/06/25 03:03:38;;;;;;;5.40;4.90;;;15.90;99.90;;;;;;5055974;28;20545;-63
2022/06/25 03:06:06;;;;;;;6.40;5.43;;;15.90;99.90;;;;;;5055557;28;20458;-63
2022/06/25 03:08:36;;;;;;;10.30;6.10;;;15.80;99.90;;;;;;5055890;28;20462;-63
2022/06/25 03:11:04;;;;;;;6.23;5.47;;;15.80;99.90;;;;;;5054672;28;20524;-63
2022/06/25 03:13:35;;;;;;;7.00;5.03;;;15.80;99.90;;;;;;5055504;28;20490;-63
2022/06/25 03:16:04;;;;;;;7.17;5.40;;;15.70;99.90;;;;;;5055843;28;20552;-63
2022/06/25 03:18:31;;;;;;;5.83;5.33;;;15.80;99.90;;;;;;5056424;28;20946;-63
2022/06/25 03:21:02;;;;;;;6.40;5.80;;;15.80;99.90;;;;;;5055790;28;20837;-63
2022/06/25 03:23:29;;;;;;;6.20;5.70;;;15.80;99.90;;;;;;5055138;28;20557;-63
2022/06/25 03:25:57;;;;;;;8.63;5.23;;;15.80;99.90;;;;;;5055314;28;20462;-63
2022/06/25 03:28:24;;;;;;;6.00;5.37;;;15.80;99.90;;;;;;5055966;28;20737;-63
2022/06/25 03:30:52;;;;;;;5.07;4.57;;;15.70;99.90;;;;;;5055971;28;20470;-63
2022/06/25 03:33:19;;;;;;;7.60;4.90;;;15.70;99.90;;;;;;5055136;28;20494;-63
2022/06/25 03:35:46;;;;;;;10.80;5.87;;;15.70;99.90;;;;;;5055578;28;20617;-64
2022/06/25 03:38:15;;;;;;;6.63;5.40;;;15.60;99.90;;;;;;5056603;28;20469;-63
2022/06/25 03:40:43;;;;;;;8.57;5.67;;;15.70;99.90;;;;;;5056691;28;20553;-63
2022/06/25 03:43:10;;;;;;;8.47;5.63;;;15.70;99.90;;;;;;5055063;28;20823;-63
2022/06/25 03:45:39;;;;;;;7.70;4.90;;;15.80;99.90;;;;;;5059037;28;20462;-63
2022/06/25 03:48:09;;;;;;;6.17;5.67;;;15.90;99.90;;;;;;5059998;28;20974;-63
2022/06/25 03:50:39;;;;;;;6.17;5.67;;;15.90;99.90;;;;;;5060164;28;20535;-63
2022/06/25 03:53:06;;;;;;;7.90;5.10;;;15.90;99.90;;;;;;5059582;28;20522;-63
2022/06/25 03:55:35;;;;;;;7.80;5.20;;;16.00;99.90;;;;;;5059592;28;20962;-63
2022/06/25 03:58:02;;;;;;;6.83;5.60;;;15.90;99.90;;;;;;5060218;28;20470;-63
2022/06/25 04:00:30;;;;;;;7.37;4.93;;;15.90;99.90;;;;;;5060163;28;20458;-63
2022/06/25 04:02:57;;;;;;;5.90;5.40;;;15.90;99.90;;;;;;5060418;28;20504;-63
2022/06/25 04:05:25;;;;;;;5.20;4.80;;;16.00;99.90;;;;;;5059860;28;20970;-63
2022/06/25 04:07:52;;;;;;;5.00;4.60;;;16.10;99.90;;;;;;5060188;28;20520;-63
2022/06/25 04:10:20;;;;;;;5.40;4.73;;;16.10;99.90;;;;;;5059820;28;20497;-63
2022/06/25 04:12:48;;;;;;;5.50;4.30;;;16.20;99.90;;;;;;5059357;28;20494;-63
2022/06/25 04:15:16;;;;;;;6.00;5.50;;;16.20;99.90;;;;;;5059677;28;20556;-63
2022/06/25 04:17:45;;;;;;;6.00;5.40;;;16.20;99.90;;;;;;5059590;28;20922;-63
2022/06/25 04:20:13;;;;;;;8.23;4.53;;;16.20;99.90;;;;;;5059653;28;20560;-63
2022/06/25 04:22:41;;;;;;;6.40;4.70;;;16.10;99.90;;;;;;5059933;28;20557;-63
2022/06/25 04:25:09;;;;;;;5.00;4.47;;;16.20;99.90;;;;;;5059609;28;20504;-63
2022/06/25 04:30:22;;;;;;;6.37;5.70;;;16.20;99.90;;;;;;5059339;28;20438;-63
2022/06/25 04:32:50;;;;;;;7.20;4.80;;;16.30;99.90;;;;;;5059485;28;20924;-63
2022/06/25 04:35:17;;;;;;;5.57;5.00;;;16.30;99.90;;;;;;5059477;28;20462;-64
2022/06/25 04:37:46;;;;;;;6.70;6.00;;;16.30;99.90;;;;;;5059369;28;20561;-64
2022/06/25 04:40:13;;;;;;;5.43;4.93;;;16.30;99.90;;;;;;5059654;28;20990;-64
2022/06/25 04:42:41;;;;;;;5.03;4.60;;;16.30;99.90;;;;;;5058969;28;20458;-63
2022/06/25 04:45:09;;;;;;;6.00;5.20;;;16.30;99.90;;;;;;5058798;28;20462;-64
2022/06/25 04:47:40;;;;;;;5.33;4.83;;;16.40;99.90;;;;;;5059062;28;20462;-64
2022/06/25 04:50:09;;;;;;;7.87;4.50;;;16.50;99.90;;;;;;5059353;28;20565;-64
2022/06/25 04:52:36;;;;;;;5.10;4.60;;;16.50;94.50;;;;;;5059083;28;20585;-64
2022/06/25 04:55:04;;;;;;;5.37;4.87;;;16.60;99.90;;;;;;5059010;28;20894;-64
2022/06/25 04:57:31;;;;;;;5.00;4.60;;;16.60;2.40;;;;;;5057257;28;20561;-64
2022/06/25 04:59:59;;;;;;;5.13;4.63;;;16.70;1.00;;;;;;5058935;28;20978;-64
2022/06/25 05:02:26;;;;;;;6.60;5.30;;;16.70;1.00;;;;;;5058952;28;20531;-64
2022/06/25 05:04:58;;;;;;;6.30;4.40;;;16.80;99.90;;;;;;5057940;28;20805;-63
2022/06/25 05:07:25;;;;;;;5.30;4.80;;;16.80;99.90;;;;;;5057075;28;20554;-64
2022/06/25 05:09:57;;;;;;;4.97;4.57;;;16.90;1.00;;;;;;5057669;28;20553;-64
2022/06/25 05:15:10;;;;;;;6.17;4.97;;;17.10;99.90;;;;;;5058058;28;20441;-64
2022/06/25 05:17:37;;;;;;;5.50;4.20;;;17.20;99.90;;;;;;5058376;28;20559;-64
2022/06/25 05:20:14;;;;;;;8.93;4.40;;;17.20;1.00;;;;;;5058801;28;20462;-64
2022/06/25 05:22:41;;;;;;;6.83;4.50;;;17.30;99.50;;;;;;5058884;28;20562;-65
2022/06/25 05:25:10;;;;;;;7.03;4.00;;;17.30;99.90;;;;;;5058546;28;20462;-64
2022/06/25 05:27:37;;;;;;;4.80;4.37;;;17.30;99.90;;;;;;5056661;28;20466;-64
2022/06/25 05:30:06;;;;;;;6.10;4.40;;;17.40;99.90;;;;;;5057614;28;20829;-64
2022/06/25 05:32:33;;;;;;;5.23;4.67;;;17.50;1.00;;;;;;5057885;28;20516;-64
2022/06/25 05:35:01;;;;;;;4.67;4.27;;;17.60;1.00;;;;;;5057769;28;20552;-64
2022/06/25 05:37:33;;;;;;;7.23;4.73;;;17.60;99.90;;;;;;5058055;28;20466;-64
2022/06/25 05:40:09;;;;;;;5.90;4.20;;;17.70;1.00;;;;;;5057758;28;20809;-64
2022/06/25 05:42:42;;;;;;;4.73;4.30;;;17.80;18.70;;;;;;5058199;28;20436;-62
2022/06/25 05:45:10;;;;;;;6.10;4.57;;;18.00;10.60;;;;;;5058346;28;20814;-62
2022/06/25 05:47:38;;;;;;;5.20;4.60;;;18.10;1.00;;;;;;5058271;28;20462;-61
2022/06/25 05:50:07;;;;;;;5.20;4.30;;;18.30;99.90;;;;;;5057995;28;20557;-61
2022/06/25 05:52:40;;;;;;;4.97;4.37;;;18.50;1.00;;;;;;5058308;28;20742;-61
2022/06/25 05:55:08;;;;;;;4.53;4.13;;;18.70;66.00;;;;;;5057498;28;20462;-61
2022/06/25 05:57:36;;;;;;;4.70;4.20;;;18.80;14.30;;;;;;5057555;28;20520;-62
2022/06/25 06:00:05;;;;;;;6.10;4.30;;;19.00;1.00;;;;;;5057812;28;20853;-62
2022/06/25 06:02:32;;;;;;;6.37;4.67;;;19.20;1.00;;;;;;5057928;28;20920;-61
2022/06/25 06:04:59;;;;;;;5.07;4.47;;;19.30;1.00;;;;;;5057859;28;20554;-62
2022/06/25 06:07:27;;;;;;;7.70;4.67;;;19.50;1.00;;;;;;5057465;28;20926;-62
2022/06/25 06:09:55;;;;;;;4.70;4.30;;;19.70;1.00;;;;;;5057682;28;20494;-62
2022/06/25 06:12:22;;;;;;;6.60;5.07;;;19.80;1.00;;;;;;5057604;28;20485;-62
2022/06/25 06:14:50;;;;;;;5.10;4.60;;;20.00;1.00;;;;;;5057566;28;20593;-63
2022/06/25 06:17:17;;;;;;;4.57;4.10;;;20.00;1.00;;;;;;5057192;28;20552;-62
2022/06/25 06:19:47;;;;;;;6.10;4.43;;;20.10;1.00;;;;;;5057403;28;20513;-63
2022/06/25 06:22:18;;;;;;;4.77;3.80;;;20.30;1.00;;;;;;5057634;28;20535;-63
2022/06/25 06:24:46;;;;;;;4.47;3.27;;;20.50;1.00;;;;;;5057432;28;20462;-63
2022/06/25 06:27:15;;;;;;;5.30;4.53;;;20.70;1.00;;;;;;5056845;28;20469;-64
2022/06/25 06:29:42;;;;;;;4.13;3.80;;;20.80;1.00;;;;;;5056953;28;20462;-64
2022/06/25 06:32:10;;;;;;;6.47;3.97;;;20.90;1.00;;;;;;5057224;28;20552;-65
2022/06/25 06:34:42;;;;;;;5.13;3.70;;;20.90;1.00;;;;;;5057604;28;20489;-65
2022/06/25 06:37:09;;;;;;;4.30;3.33;;;21.00;1.00;;;;;;5057620;28;20806;-65
2022/06/25 06:39:39;;;;;;;5.93;3.70;;;21.10;99.90;;;;;;5057308;28;20549;-66
2022/06/25 06:42:07;;;;;;;4.77;3.60;;;21.40;1.00;;;;;;5057668;28;20902;-66
2022/06/25 06:44:42;;;;;;;4.70;3.27;;;21.70;99.90;;;;;;5057548;28;20469;-68
2022/06/25 06:47:10;;;;;;;4.33;3.60;;;21.90;99.90;;;;;;5055977;28;20443;-68
2022/06/25 06:49:38;;;;;;;3.83;3.50;;;22.20;99.90;;;;;;5056723;28;20452;-68
2022/06/25 06:52:06;;;;;;;6.80;3.73;;;22.40;99.90;;;;;;5057068;28;20472;-71
2022/06/25 06:54:33;;;;;;;3.77;3.17;;;22.30;99.90;;;;;;5057246;28;20590;-70
2022/06/25 06:57:00;;;;;;;5.10;3.50;;;22.50;99.90;;;;;;5056927;28;20871;-70
2022/06/25 06:59:29;;;;;;;3.90;3.40;;;22.80;99.90;;;;;;5056646;28;20462;-71
2022/06/25 07:02:04;;;;;;;4.50;3.57;;;23.00;99.90;;;;;;5056701;28;20470;-70
2022/06/25 07:04:31;;;;;;;4.20;3.80;;;23.00;99.90;;;;;;5057410;28;20457;-68
2022/06/25 07:06:59;;;;;;;4.40;3.93;;;22.80;99.90;;;;;;5057070;28;20473;-68
2022/06/25 07:09:26;;;;;;;4.53;3.70;;;22.90;99.90;;;;;;5056794;28;20565;-70
2022/06/25 07:11:56;;;;;;;4.60;4.20;;;23.20;99.90;;;;;;5056454;28;20561;-71
2022/06/25 07:14:29;;;;;;;4.73;2.90;;;23.40;99.90;;;;;;5055632;28;20481;-70
2022/06/25 07:17:01;;;;;;;5.90;3.43;;;23.60;99.90;;;;;;5056213;28;20899;-69
2022/06/25 07:19:28;;;;;;;5.00;2.93;;;23.60;99.90;;;;;;5057783;28;20490;-68
2022/06/25 07:22:00;;;;;;;6.40;3.13;;;23.80;99.90;;;;;;5060849;28;20471;-68
2022/06/25 07:24:33;;;;;;;4.73;3.00;;;23.80;99.90;;;;;;5061093;28;20461;-69
2022/06/25 07:27:03;;;;;;;3.23;2.93;;;24.00;99.90;;;;;;5070488;28;20457;-68
2022/06/25 07:29:32;;;;;;;5.83;3.57;;;24.30;99.90;;;;;;5080457;28;20457;-68
2022/06/25 07:32:08;;;;;;;4.30;3.60;;;24.30;99.90;;;;;;5079537;28;20839;-68
2022/06/25 07:34:39;;;;;;;4.10;2.90;;;24.30;99.90;;;;;;5080537;28;21017;-67
2022/06/25 07:37:09;;;;;;;3.40;2.83;;;24.30;99.90;;;;;;5080498;28;20472;-66
2022/06/25 07:39:42;;;;;;;4.77;2.77;;;24.60;99.90;;;;;;5077146;28;20467;-67
2022/06/25 07:42:13;;;;;;;3.60;2.47;;;24.40;99.90;;;;;;5080640;28;20485;-66
2022/06/25 07:44:47;;;;;;;5.03;3.00;;;24.30;99.90;;;;;;5080946;28;20556;-66
2022/06/25 07:47:15;;;;;;;4.70;3.00;;;24.80;99.90;;;;;;5080421;28;20473;-65
2022/06/25 07:52:29;;;;;;;3.93;3.00;;;25.20;99.90;;;;;;5072348;28;20753;-66
2022/06/25 07:54:58;;;;;;;4.37;2.97;;;25.50;99.90;;;;;;5059271;28;20577;-66
2022/06/25 07:57:26;;;;;;;4.13;3.03;;;25.30;99.90;;;;;;5058827;28;20466;-65
2022/06/25 07:59:54;;;;;;;6.80;3.37;;;25.60;99.90;;;;;;5058650;28;20541;-65
2022/06/25 08:02:25;;;;;;;4.30;2.83;;;25.70;99.90;;;;;;5059798;28;20800;-65
2022/06/25 08:04:52;;;;;;;3.47;3.17;;;26.00;99.90;;;;;;5060748;28;20879;-65
2022/06/25 08:07:21;;;;;;;4.30;3.00;;;26.40;99.90;;;;;;5060245;28;20552;-65
2022/06/25 08:09:51;;;;;;;4.97;3.07;;;26.50;99.90;;;;;;5060241;28;20466;-65
2022/06/25 08:12:18;;;;;;;4.20;3.03;;;26.50;99.90;;;;;;5061296;28;20801;-65
2022/06/25 08:14:50;;;;;;;4.70;3.20;;;26.20;99.90;;;;;;5060113;28;20496;-65
2022/06/25 08:17:17;;;;;;;6.63;3.40;;;26.10;99.90;;;;;;5059603;28;21006;-65
2022/06/25 08:19:49;;;;;;;4.70;2.97;;;26.30;99.90;;;;;;5059777;28;20530;-64
2022/06/25 08:22:20;;;;;;;5.87;3.40;;;26.50;99.90;;;;;;5060079;28;20480;-65
2022/06/25 08:24:56;;;;;;;3.27;2.63;;;26.60;99.90;;;;;;5060708;28;20455;-64
2022/06/25 08:27:24;;;;;;;3.80;2.60;;;27.10;99.90;;;;;;5059484;28;20478;-64
2022/06/25 08:29:51;;;;;;;6.90;2.90;;;27.00;99.90;;;;;;5060612;28;20497;-64
2022/06/25 08:32:19;;;;;;;3.60;3.00;;;26.90;99.90;;;;;;5060255;28;20548;-64
2022/06/25 08:34:50;;;;;;;4.70;3.30;;;27.10;99.90;;;;;;5060364;28;20489;-64
2022/06/25 08:37:23;;;;;;;5.80;3.77;;;26.80;99.90;;;;;;5058987;28;20821;-64
2022/06/25 08:39:53;;;;;;;3.40;3.03;;;25.90;99.90;;;;;;5059299;28;20494;-64
2022/06/25 08:42:23;;;;;;;3.47;3.13;;;26.00;99.90;;;;;;5060116;28;20496;-64
2022/06/25 08:44:50;;;;;;;5.30;2.90;;;26.60;99.90;;;;;;5059311;28;20497;-64
2022/06/25 08:47:19;;;;;;;4.27;2.90;;;27.10;99.90;;;;;;5048179;28;20475;-64
2022/06/25 08:49:48;;;;;;;4.53;2.90;;;26.70;99.90;;;;;;5047010;28;20469;-64
2022/06/25 08:52:19;;;;;;;5.23;3.27;;;26.80;99.90;;;;;;5059528;28;20950;-64
2022/06/25 08:54:49;;;;;;;3.23;2.67;;;27.30;99.90;;;;;;5061618;28;20486;-64
2022/06/25 08:57:16;;;;;;;6.57;2.93;;;27.00;99.90;;;;;;5059342;28;20462;-64
2022/06/25 08:59:46;;;;;;;3.53;2.90;;;27.30;99.90;;;;;;5059575;28;20599;-64
2022/06/25 09:02:16;;;;;;;2.87;2.60;;;27.30;99.90;;;;;;5058088;28;20557;-64
2022/06/25 09:04:47;;;;;;;5.43;2.80;;;27.60;99.90;;;;;;5059615;28;20480;-64
2022/06/25 09:07:20;;;;;;;4.23;2.87;;;27.50;99.90;;;;;;5058779;28;20462;-64
2022/06/25 09:09:50;;;;;;;2.83;2.53;;;27.90;99.90;;;;;;5058895;28;20937;-65
2022/06/25 09:12:19;;;;;;;4.00;3.47;;;27.90;99.90;;;;;;5059195;28;20445;-64
2022/06/25 09:14:56;;;;;;;5.30;3.00;;;27.50;99.90;;;;;;5058400;28;20595;-64
2022/06/25 09:17:24;;;;;;;4.10;3.70;;;27.60;99.90;;;;;;5058632;28;20672;-64
2022/06/25 09:19:57;;;;;;;4.40;3.40;;;27.90;99.90;;;;;;5058963;28;20557;-62
2022/06/25 09:22:31;;;;;;;3.37;3.07;;;28.10;99.90;;;;;;5059007;28;20835;-63
2022/06/25 09:25:00;;;;;;;4.73;3.10;;;28.20;99.90;;;;;;5057476;28;20489;-63
2022/06/25 09:27:38;;;;;;;3.43;2.10;;;27.70;99.90;;;;;;5057236;28;20462;-64
2022/06/25 09:30:12;;;;;;;3.03;2.50;;;27.80;99.90;;;;;;5057194;28;20462;-63
2022/06/25 09:32:50;;;;;;;2.57;2.30;;;27.40;99.90;;;;;;5058082;28;20470;-62
2022/06/25 09:35:33;;;;;;;3.47;2.60;;;27.80;99.90;;;;;;5058104;28;20501;-62
2022/06/25 09:38:07;;;;;;;4.47;2.47;;;27.80;99.90;;;;;;5054756;28;20914;-63
2022/06/25 09:40:38;;;;;;;3.53;3.00;;;28.00;99.90;;;;;;5058669;28;20458;-62
2022/06/25 09:43:16;;;;;;;3.13;2.23;;;27.50;99.90;;;;;;5057585;28;20541;-62
2022/06/25 09:45:44;;;;;;;2.70;2.50;;;27.10;99.90;;;;;;5058112;28;20773;-62
2022/06/25 09:48:21;;;;;;;5.13;2.40;;;26.30;99.90;;;;;;5058297;28;20439;-62
2022/06/25 09:51:08;;;;;;;3.70;2.47;;;26.50;99.90;;;;;;5053851;28;20513;-63
2022/06/25 09:53:47;;;;;;;5.80;2.57;;;27.10;99.90;;;;;;5037378;28;20491;-63
2022/06/25 09:56:19;;;;;;;2.97;2.50;;;27.80;99.90;;;;;;5037003;28;20459;-63
2022/06/25 09:58:48;;;;;;;2.80;2.57;;;28.20;99.90;;;;;;5050216;28;20545;-63
2022/06/25 10:01:17;;;;;;;3.20;2.63;;;28.60;99.90;;;;;;5057284;28;20466;-63
2022/06/25 10:03:46;;;;;;;5.00;2.83;;;28.90;99.90;;;;;;5056309;28;20466;-62
2022/06/25 10:06:23;;;;;;;4.13;2.43;;;29.70;99.90;;;;;;5056029;28;20525;-62
2022/06/25 10:08:54;;;;;;;4.17;3.37;;;30.00;99.90;;;;;;5055821;28;20851;-64
2022/06/25 10:11:28;;;;;;;4.17;2.43;;;30.20;99.90;;;;;;5055219;28;20778;-63
2022/06/25 10:13:56;;;;;;;4.10;2.67;;;30.00;99.90;;;;;;5057537;28;20961;-64
2022/06/25 10:16:24;;;;;;;3.50;3.20;;;29.70;99.90;;;;;;5060223;28;20759;-64
2022/06/25 10:18:55;;;;;;;3.10;2.30;;;28.50;99.90;;;;;;5054435;28;20486;-63
2022/06/25 10:21:25;;;;;;;4.97;2.70;;;28.90;99.90;;;;;;5056702;28;20501;-63
2022/06/25 10:23:58;;;;;;;2.77;2.57;;;29.70;99.90;;;;;;5056972;28;20536;-63
2022/06/25 10:26:26;;;;;;;4.00;2.60;;;30.20;99.90;;;;;;5056116;28;20463;-63
2022/06/25 10:28:53;;;;;;;4.00;2.60;;;30.20;99.90;;;;;;5056663;28;20516;-63
2022/06/25 10:31:26;;;;;;;3.07;2.73;;;30.20;99.90;;;;;;5057100;28;20775;-64
2022/06/25 10:33:57;;;;;;;2.73;2.40;;;30.00;99.90;;;;;;5056948;28;20467;-63
2022/06/25 10:36:44;;;;;;;3.83;2.60;;;30.50;99.90;;;;;;5073630;28;20457;-63
2022/06/25 10:39:37;;;;;;;2.67;2.47;;;29.90;99.90;;;;;;5077280;28;20503;-63
2022/06/25 10:45:52;;;;;;;3.63;3.03;;;28.60;99.90;;;;;;5044188;28;20453;-62
2022/06/25 10:48:27;;;;;;;3.30;2.87;;;27.30;99.90;;;;;;5057039;28;20464;-63
2022/06/25 10:50:55;;;;;;;3.70;2.93;;;27.10;99.90;;;;;;5060087;28;20471;-62
2022/06/25 10:53:31;;;;;;;3.87;3.03;;;26.90;99.90;;;;;;5056576;28;20462;-62
2022/06/25 10:56:18;;;;;;;2.43;2.23;;;26.50;99.90;;;;;;5060218;28;20996;-62
2022/06/25 10:58:48;;;;;;;5.50;2.90;;;26.30;99.90;;;;;;5058764;28;20896;-62
2022/06/25 11:01:33;;;;;;;3.23;3.03;;;26.20;99.90;;;;;;5060673;28;20478;-62
2022/06/25 11:04:12;;;;;;;3.73;3.00;;;27.00;99.90;;;;;;5056968;28;20565;-62
2022/06/25 11:06:41;;;;;;;2.70;2.50;;;27.20;99.90;;;;;;5057304;28;20556;-63
2022/06/25 11:09:19;;;;;;;3.47;2.70;;;27.60;99.90;;;;;;5054715;28;20774;-63
2022/06/25 11:11:54;;;;;;;5.77;3.00;;;27.80;99.90;;;;;;5055369;28;20891;-62
2022/06/25 11:14:24;;;;;;;3.30;2.97;;;27.40;99.90;;;;;;5056490;28;20774;-63
2022/06/25 11:17:00;;;;;;;5.17;3.47;;;27.50;99.90;;;;;;5059248;28;20465;-63
2022/06/25 11:19:28;;;;;;;3.17;2.87;;;27.60;99.90;;;;;;5056455;28;20513;-61
2022/06/25 11:22:03;;;;;;;2.93;2.73;;;27.40;99.90;;;;;;5056167;28;20553;-63
2022/06/25 11:24:33;;;;;;;3.13;2.83;;;27.70;99.90;;;;;;5056594;28;20960;-63
2022/06/25 11:29:55;;;;;;;3.60;2.70;;;28.60;99.90;;;;;;5053987;28;21033;-63
2022/06/25 11:32:28;;;;;;;5.73;2.90;;;27.90;99.90;;;;;;5053659;28;20549;-63
2022/06/25 11:35:00;;;;;;;4.20;2.77;;;27.90;99.90;;;;;;5053467;28;20999;-63
2022/06/25 11:37:33;;;;;;;5.33;2.80;;;28.80;99.90;;;;;;5054316;28;20544;-62
2022/06/25 11:40:00;;;;;;;2.70;2.50;;;28.30;99.90;;;;;;5053159;28;20483;-63
2022/06/25 11:42:33;;;;;;;2.97;2.67;;;27.50;99.90;;;;;;5052705;28;20462;-63
2022/06/25 11:45:08;;;;;;;4.50;2.83;;;27.10;99.90;;;;;;5053712;28;20455;-63
2022/06/25 11:47:45;;;;;;;4.17;2.70;;;27.10;99.90;;;;;;5054960;28;20890;-63
2022/06/25 11:50:13;;;;;;;2.73;2.53;;;27.50;99.90;;;;;;5050633;28;20509;-63
2022/06/25 11:52:44;;;;;;;5.37;3.07;;;27.60;99.90;;;;;;5053127;28;20458;-63
2022/06/25 11:55:12;;;;;;;6.53;3.17;;;27.10;99.90;;;;;;5051804;28;20489;-63
2022/06/25 11:57:45;;;;;;;3.30;2.77;;;27.90;99.90;;;;;;5055594;28;20911;-63
2022/06/25 12:00:14;;;;;;;3.27;2.97;;;28.80;99.90;;;;;;5055098;28;20474;-63
2022/06/25 12:02:43;;;;;;;4.10;2.73;;;29.60;99.90;;;;;;5056696;28;20466;-63
2022/06/25 12:05:13;;;;;;;3.73;2.60;;;30.30;99.90;;;;;;5056531;28;20473;-63
2022/06/25 12:07:46;;;;;;;4.37;3.20;;;30.00;99.90;;;;;;5059229;28;20995;-62
2022/06/25 12:10:15;;;;;;;2.77;2.33;;;30.30;99.90;;;;;;5058832;28;20466;-64
2022/06/25 12:12:44;;;;;;;4.00;3.10;;;31.00;99.90;;;;;;5045875;28;20562;-63
2022/06/25 12:15:13;;;;;;;3.97;2.77;;;30.50;99.90;;;;;;5039162;28;20494;-63
2022/06/25 12:17:49;;;;;;;3.47;3.27;;;29.40;99.90;;;;;;5049463;28;20596;-63
2022/06/25 12:20:17;;;;;;;3.40;3.10;;;28.70;99.90;;;;;;5058677;28;20473;-63
2022/06/25 12:22:46;;;;;;;2.70;2.50;;;28.80;99.90;;;;;;5062722;28;20910;-63
2022/06/25 12:25:23;;;;;;;2.83;2.60;;;28.70;99.90;;;;;;5058900;28;20528;-63
2022/06/25 12:27:54;;;;;;;2.93;2.73;;;28.70;99.90;;;;;;5043447;28;20580;-63
2022/06/25 12:30:22;;;;;;;3.67;2.87;;;27.90;99.90;;;;;;5060113;28;20831;-62
2022/06/25 12:32:55;;;;;;;3.77;3.07;;;27.40;99.90;;;;;;5059908;28;20469;-62
2022/06/25 12:35:24;;;;;;;5.60;3.07;;;26.90;99.90;;;;;;5059441;28;20492;-62
2022/06/25 12:38:03;;;;;;;2.97;2.70;;;26.60;99.90;;;;;;5056155;28;20474;-63
2022/06/25 12:40:33;;;;;;;3.33;2.87;;;26.30;99.90;;;;;;5058672;28;20948;-63
2022/06/25 12:43:04;;;;;;;4.37;3.17;;;26.70;99.90;;;;;;5059179;28;20459;-63
2022/06/25 12:45:32;;;;;;;3.57;2.90;;;27.00;99.90;;;;;;5058969;28;20549;-62
2022/06/25 12:48:00;;;;;;;3.47;3.10;;;27.30;99.90;;;;;;5059709;28;20774;-62
2022/06/25 12:50:34;;;;;;;4.27;3.33;;;27.40;99.90;;;;;;5058379;28;20561;-63
2022/06/25 12:53:10;;;;;;;3.93;2.90;;;27.50;99.90;;;;;;5059083;28;20569;-62
2022/06/25 12:55:38;;;;;;;3.97;3.30;;;27.40;99.90;;;;;;5079217;28;20642;-62
2022/06/25 12:58:08;;;;;;;4.27;2.80;;;27.20;99.90;;;;;;5070342;28;20694;-63
2022/06/25 13:00:38;;;;;;;2.90;2.70;;;27.10;99.90;;;;;;5060394;28;20462;-63
2022/06/25 13:03:06;;;;;;;7.77;2.77;;;27.20;99.90;;;;;;5053071;28;20475;-63
2022/06/25 13:05:35;;;;;;;3.50;3.20;;;27.00;99.90;;;;;;5054595;28;20462;-62
2022/06/25 13:08:03;;;;;;;3.20;2.90;;;26.80;99.90;;;;;;5057843;28;20750;-62
2022/06/25 13:10:30;;;;;;;4.13;3.23;;;26.80;99.90;;;;;;5058203;28;20501;-62
2022/06/25 13:12:59;;;;;;;2.93;2.30;;;26.80;99.90;;;;;;5056742;28;20466;-63
2022/06/25 13:15:27;;;;;;;3.40;2.77;;;26.80;99.90;;;;;;5057106;28;20464;-63
2022/06/25 13:17:58;;;;;;;4.70;3.47;;;27.20;99.90;;;;;;5056306;28;20508;-62
2022/06/25 13:20:25;;;;;;;3.37;2.53;;;27.90;99.90;;;;;;5057592;28;20560;-62
2022/06/25 13:22:58;;;;;;;3.07;2.60;;;28.70;99.90;;;;;;5054009;28;20557;-63
2022/06/25 13:25:26;;;;;;;3.23;2.73;;;29.40;99.90;;;;;;5054463;28;20459;-63
2022/06/25 13:27:54;;;;;;;3.10;2.77;;;29.00;99.90;;;;;;5056839;28;20464;-62